Historyczne dane pomiarowe

Dodano dane terminowe – wersja testowa.

Dane z okresu 1951-2019

Wersja bazy: 1.34 [2019-03-16, lista zmian], aktualizacja planowana na 2019-04-15

Dane meteo z obszaru Polski uzyskane na podstawie danych udostępnionych przez Instytut Meteorologii i Gospodarki Wodnej – Państwowy Instytut Badawczy.

 

Wybierz Datę:    

       

TemperaturaWilgotnośćZachmurzenieWiatrCiśnienieWidzialnośćZjawiska
 Data    tng td wb rh cc ccl cl cm ch dir g1 g2 mslp ppp      
1999-08-07 00:00:00 19.2--- 12.5 15.265wxwx2wx--1009.2 986.8 0.0---wx
1999-08-07 01:00:00 19.5--- 12.3 15.263wxwx1wx--1009.1 986.7----wx
1999-08-07 02:00:00 19.5--- 11.9 15.062wxwxwx2wx--1008.7 986.3----wx
1999-08-07 03:00:00 19.4--- 11.8 14.961wxwxwx2wx--1008.2 985.8----wx
1999-08-07 04:00:00 19.0--- 11.9 14.863wxwxwx2wx--1008.0 985.6----wx
1999-08-07 05:00:00 19.7--- 13.3 15.866wxwxwxwx2wx--1007.9 985.5----wx
1999-08-07 06:00:00 20.4--- 12.4 15.660wxwxwx2wx--1007.8 985.5 0.0---wx
1999-08-07 07:00:00 22.9--- 13.1 16.954wxwxwxwx2wx--1007.6 985.5----wx
1999-08-07 08:00:00 24.4--- 12.9 17.349wxwxwx2wx--1007.5 985.5----wx
1999-08-07 09:00:00 26.2--- 11.7 17.441wxwxwx2wx--1007.4 985.5----wx
1999-08-07 10:00:00 27.4--- 10.8 17.436wxwxwxwxwx2wx--1007.0 985.2----wx
1999-08-07 11:00:00 28.0--- 12.5 18.438wxwxwxwx2wx--1006.4 984.7----wx
1999-08-07 12:00:00 27.7--- 10.1 17.233wxwxwx1wx--1006.1 984.4 0.0---wx
1999-08-07 13:00:00 27.0--- 12.8 18.242wxwxwx2wx--1006.0 984.2----wx
1999-08-07 14:00:00 26.7--- 13.4 18.444wxwxwx2wx--1005.8 984.0----wx
1999-08-07 15:00:00 26.2--- 14.2 18.648wxwxwx1wx--1005.5 983.7----wxw1
1999-08-07 16:00:00 25.6--- 13.8 18.248wxwxwxwx3wx--1005.5 983.6----wx
1999-08-07 17:00:00 25.0--- 14.2 18.251wxwxwx3wx--1005.3 983.4----wx
1999-08-07 18:00:00 23.6--- 15.3 18.360wxwxwxwx2wx--1005.4 983.4 0.0---wxw1
1999-08-07 19:00:00 23.0--- 15.1 18.061wxwxwxwx2wx--1005.6 983.5----wx
1999-08-07 20:00:00 22.2--- 16.0 18.268wxwxwx1wx--1005.8 983.7----wx
1999-08-07 21:00:00 21.3--- 15.8 17.871wxwxwx1wx--1005.7 983.5----wx
1999-08-07 22:00:00 19.8--- 17.5 18.387wxwxwx2wx--1005.6 983.3----wxw1
1999-08-07 23:00:00 19.4--- 17.9 18.491wxwxwx2wx--1005.2 982.9----wxw1

 

Źródłem pochodzenia danych jest Instytut Meteorologii i Gospodarki Wodnej – Państwowy Instytut Badawczy. Dane Instytutu Meteorologii i Gospodarki Wodnej – Państwowego Instytutu Badawczego zostały przetworzone.

Dane źródłowe można odnaleźć na stronie https://dane.imgw.pl